sensor_id;sensor_type;location;lat;lon;timestamp;P1;durP1;ratioP1;P2;durP2;ratioP2
66546;SDS011;53400;50.364;14.874;2022-11-04T00:02:00;32.08;;;17.60;;
66546;SDS011;53400;50.364;14.874;2022-11-04T00:04:26;31.98;;;18.05;;
66546;SDS011;53400;50.364;14.874;2022-11-04T00:06:53;34.65;;;18.63;;
66546;SDS011;53400;50.364;14.874;2022-11-04T00:09:21;31.30;;;17.55;;
66546;SDS011;53400;50.364;14.874;2022-11-04T00:11:48;32.45;;;17.15;;
66546;SDS011;53400;50.364;14.874;2022-11-04T00:14:34;29.77;;;16.60;;
66546;SDS011;53400;50.364;14.874;2022-11-04T00:17:00;31.70;;;17.08;;
66546;SDS011;53400;50.364;14.874;2022-11-04T00:19:46;30.83;;;17.20;;
66546;SDS011;53400;50.364;14.874;2022-11-04T00:22:32;28.73;;;16.58;;
66546;SDS011;53400;50.364;14.874;2022-11-04T00:25:17;31.05;;;15.32;;
66546;SDS011;53400;50.364;14.874;2022-11-04T00:28:02;35.33;;;17.88;;
66546;SDS011;53400;50.364;14.874;2022-11-04T00:30:49;29.38;;;18.98;;
66546;SDS011;53400;50.364;14.874;2022-11-04T00:33:17;31.98;;;18.70;;
66546;SDS011;53400;50.364;14.874;2022-11-04T00:35:50;32.47;;;19.40;;
66546;SDS011;53400;50.364;14.874;2022-11-04T00:38:17;31.83;;;18.50;;
66546;SDS011;53400;50.364;14.874;2022-11-04T00:40:43;31.55;;;17.08;;
66546;SDS011;53400;50.364;14.874;2022-11-04T00:43:09;33.85;;;17.55;;
66546;SDS011;53400;50.364;14.874;2022-11-04T00:45:35;32.55;;;16.27;;
66546;SDS011;53400;50.364;14.874;2022-11-04T00:48:03;32.85;;;17.95;;
66546;SDS011;53400;50.364;14.874;2022-11-04T00:50:29;30.23;;;17.05;;
66546;SDS011;53400;50.364;14.874;2022-11-04T00:52:57;34.20;;;18.88;;
66546;SDS011;53400;50.364;14.874;2022-11-04T00:55:23;32.45;;;18.02;;
66546;SDS011;53400;50.364;14.874;2022-11-04T00:57:49;33.63;;;18.35;;
66546;SDS011;53400;50.364;14.874;2022-11-04T01:00:15;32.97;;;17.48;;
66546;SDS011;53400;50.364;14.874;2022-11-04T01:02:42;31.02;;;18.08;;
66546;SDS011;53400;50.364;14.874;2022-11-04T01:05:09;34.53;;;18.70;;
66546;SDS011;53400;50.364;14.874;2022-11-04T01:07:35;34.88;;;20.45;;
66546;SDS011;53400;50.364;14.874;2022-11-04T01:10:01;32.83;;;18.98;;
66546;SDS011;53400;50.364;14.874;2022-11-04T01:12:27;33.15;;;17.38;;
66546;SDS011;53400;50.364;14.874;2022-11-04T01:14:53;30.90;;;17.95;;
66546;SDS011;53400;50.364;14.874;2022-11-04T01:17:19;33.85;;;19.05;;
66546;SDS011;53400;50.364;14.874;2022-11-04T01:19:45;32.88;;;19.00;;
66546;SDS011;53400;50.364;14.874;2022-11-04T01:22:12;32.35;;;17.75;;
66546;SDS011;53400;50.364;14.874;2022-11-04T01:24:38;34.22;;;20.05;;
66546;SDS011;53400;50.364;14.874;2022-11-04T01:27:04;32.30;;;19.05;;
66546;SDS011;53400;50.364;14.874;2022-11-04T01:29:30;34.13;;;19.45;;
66546;SDS011;53400;50.364;14.874;2022-11-04T01:31:56;34.45;;;18.55;;
66546;SDS011;53400;50.364;14.874;2022-11-04T01:34:21;35.25;;;19.83;;
66546;SDS011;53400;50.364;14.874;2022-11-04T01:36:47;29.70;;;16.67;;
66546;SDS011;53400;50.364;14.874;2022-11-04T01:39:14;30.10;;;17.73;;
66546;SDS011;53400;50.364;14.874;2022-11-04T01:41:40;36.55;;;18.10;;
66546;SDS011;53400;50.364;14.874;2022-11-04T01:47:07;34.97;;;16.45;;
66546;SDS011;53400;50.364;14.874;2022-11-04T01:49:39;32.42;;;18.33;;
66546;SDS011;53400;50.364;14.874;2022-11-04T01:52:05;34.92;;;19.65;;
66546;SDS011;53400;50.364;14.874;2022-11-04T01:54:36;31.33;;;18.42;;
66546;SDS011;53400;50.364;14.874;2022-11-04T01:57:06;31.65;;;18.08;;
66546;SDS011;53400;50.364;14.874;2022-11-04T01:59:38;30.17;;;18.10;;
66546;SDS011;53400;50.364;14.874;2022-11-04T02:02:06;30.52;;;18.70;;
66546;SDS011;53400;50.364;14.874;2022-11-04T02:04:31;36.67;;;19.08;;
66546;SDS011;53400;50.364;14.874;2022-11-04T02:06:59;32.67;;;17.58;;
66546;SDS011;53400;50.364;14.874;2022-11-04T02:09:28;30.48;;;16.67;;
66546;SDS011;53400;50.364;14.874;2022-11-04T02:11:57;33.75;;;17.80;;
66546;SDS011;53400;50.364;14.874;2022-11-04T02:14:42;33.20;;;17.92;;
66546;SDS011;53400;50.364;14.874;2022-11-04T02:17:14;34.58;;;18.77;;
66546;SDS011;53400;50.364;14.874;2022-11-04T02:19:58;33.08;;;17.38;;
66546;SDS011;53400;50.364;14.874;2022-11-04T02:22:45;30.85;;;17.33;;
66546;SDS011;53400;50.364;14.874;2022-11-04T02:25:32;33.33;;;16.85;;
66546;SDS011;53400;50.364;14.874;2022-11-04T02:31:18;38.65;;;18.65;;
66546;SDS011;53400;50.364;14.874;2022-11-04T02:33:52;30.50;;;16.65;;
66546;SDS011;53400;50.364;14.874;2022-11-04T02:36:26;36.67;;;19.60;;
66546;SDS011;53400;50.364;14.874;2022-11-04T02:39:02;34.90;;;20.25;;
66546;SDS011;53400;50.364;14.874;2022-11-04T02:41:37;39.88;;;18.92;;
66546;SDS011;53400;50.364;14.874;2022-11-04T02:44:11;33.63;;;17.27;;
66546;SDS011;53400;50.364;14.874;2022-11-04T02:46:44;34.38;;;18.38;;
66546;SDS011;53400;50.364;14.874;2022-11-04T02:51:43;36.10;;;18.73;;
66546;SDS011;53400;50.364;14.874;2022-11-04T02:54:13;35.42;;;20.73;;
66546;SDS011;53400;50.364;14.874;2022-11-04T02:56:46;36.00;;;18.60;;
66546;SDS011;53400;50.364;14.874;2022-11-04T02:59:16;33.53;;;18.75;;
66546;SDS011;53400;50.364;14.874;2022-11-04T03:01:47;34.70;;;18.70;;
66546;SDS011;53400;50.364;14.874;2022-11-04T03:04:17;34.90;;;18.75;;
66546;SDS011;53400;50.364;14.874;2022-11-04T03:06:47;35.40;;;18.95;;
66546;SDS011;53400;50.364;14.874;2022-11-04T03:09:15;36.70;;;18.63;;
66546;SDS011;53400;50.364;14.874;2022-11-04T03:11:46;34.17;;;18.35;;
66546;SDS011;53400;50.364;14.874;2022-11-04T03:14:18;32.80;;;18.13;;
66546;SDS011;53400;50.364;14.874;2022-11-04T03:16:49;35.00;;;19.42;;
66546;SDS011;53400;50.364;14.874;2022-11-04T03:19:18;37.00;;;19.17;;
66546;SDS011;53400;50.364;14.874;2022-11-04T03:21:52;31.85;;;17.50;;
66546;SDS011;53400;50.364;14.874;2022-11-04T03:24:21;33.50;;;17.80;;
66546;SDS011;53400;50.364;14.874;2022-11-04T03:26:48;33.17;;;17.73;;
66546;SDS011;53400;50.364;14.874;2022-11-04T03:29:21;33.58;;;19.73;;
66546;SDS011;53400;50.364;14.874;2022-11-04T03:31:55;36.65;;;19.45;;
66546;SDS011;53400;50.364;14.874;2022-11-04T03:34:29;33.10;;;19.15;;
66546;SDS011;53400;50.364;14.874;2022-11-04T03:36:56;34.75;;;18.63;;
66546;SDS011;53400;50.364;14.874;2022-11-04T03:39:22;36.00;;;18.15;;
66546;SDS011;53400;50.364;14.874;2022-11-04T03:41:49;35.17;;;19.35;;
66546;SDS011;53400;50.364;14.874;2022-11-04T03:44:18;35.65;;;18.20;;
66546;SDS011;53400;50.364;14.874;2022-11-04T03:46:44;36.67;;;19.13;;
66546;SDS011;53400;50.364;14.874;2022-11-04T03:49:11;36.15;;;20.08;;
66546;SDS011;53400;50.364;14.874;2022-11-04T03:51:39;34.38;;;20.02;;
66546;SDS011;53400;50.364;14.874;2022-11-04T03:54:05;33.60;;;19.02;;
66546;SDS011;53400;50.364;14.874;2022-11-04T03:56:52;35.00;;;19.38;;
66546;SDS011;53400;50.364;14.874;2022-11-04T03:59:37;33.67;;;19.85;;
66546;SDS011;53400;50.364;14.874;2022-11-04T04:02:26;36.75;;;19.85;;
66546;SDS011;53400;50.364;14.874;2022-11-04T04:05:05;33.05;;;18.73;;
66546;SDS011;53400;50.364;14.874;2022-11-04T04:07:38;30.88;;;17.98;;
66546;SDS011;53400;50.364;14.874;2022-11-04T04:10:11;37.08;;;20.00;;
66546;SDS011;53400;50.364;14.874;2022-11-04T04:13:00;31.80;;;17.65;;
66546;SDS011;53400;50.364;14.874;2022-11-04T04:15:33;32.78;;;18.42;;
66546;SDS011;53400;50.364;14.874;2022-11-04T04:18:08;32.97;;;17.95;;
66546;SDS011;53400;50.364;14.874;2022-11-04T04:20:39;39.20;;;20.55;;
66546;SDS011;53400;50.364;14.874;2022-11-04T04:23:08;33.45;;;19.73;;
66546;SDS011;53400;50.364;14.874;2022-11-04T04:25:57;31.70;;;17.88;;
66546;SDS011;53400;50.364;14.874;2022-11-04T04:28:45;33.03;;;17.70;;
66546;SDS011;53400;50.364;14.874;2022-11-04T04:31:13;35.47;;;19.45;;
66546;SDS011;53400;50.364;14.874;2022-11-04T04:34:03;34.10;;;18.70;;
66546;SDS011;53400;50.364;14.874;2022-11-04T04:36:31;31.65;;;17.92;;
66546;SDS011;53400;50.364;14.874;2022-11-04T04:39:04;35.92;;;17.92;;
66546;SDS011;53400;50.364;14.874;2022-11-04T04:41:52;35.38;;;19.15;;
66546;SDS011;53400;50.364;14.874;2022-11-04T04:44:40;30.23;;;17.30;;
66546;SDS011;53400;50.364;14.874;2022-11-04T04:47:25;33.97;;;18.77;;
66546;SDS011;53400;50.364;14.874;2022-11-04T04:49:55;35.13;;;18.40;;
66546;SDS011;53400;50.364;14.874;2022-11-04T04:52:25;31.58;;;18.00;;
66546;SDS011;53400;50.364;14.874;2022-11-04T04:54:53;36.55;;;18.50;;
66546;SDS011;53400;50.364;14.874;2022-11-04T04:57:19;34.00;;;18.70;;
66546;SDS011;53400;50.364;14.874;2022-11-04T04:59:45;32.08;;;17.88;;
66546;SDS011;53400;50.364;14.874;2022-11-04T05:02:11;33.63;;;18.73;;
66546;SDS011;53400;50.364;14.874;2022-11-04T05:04:37;31.63;;;19.08;;
66546;SDS011;53400;50.364;14.874;2022-11-04T05:07:02;32.83;;;19.05;;
66546;SDS011;53400;50.364;14.874;2022-11-04T05:09:30;33.85;;;18.83;;
66546;SDS011;53400;50.364;14.874;2022-11-04T05:11:56;35.75;;;20.13;;
66546;SDS011;53400;50.364;14.874;2022-11-04T05:14:22;36.13;;;20.40;;
66546;SDS011;53400;50.364;14.874;2022-11-04T05:16:48;37.90;;;19.15;;
66546;SDS011;53400;50.364;14.874;2022-11-04T05:19:14;36.22;;;19.70;;
66546;SDS011;53400;50.364;14.874;2022-11-04T05:21:40;36.10;;;19.00;;
66546;SDS011;53400;50.364;14.874;2022-11-04T05:24:06;34.20;;;18.55;;
66546;SDS011;53400;50.364;14.874;2022-11-04T05:26:33;36.03;;;20.15;;
66546;SDS011;53400;50.364;14.874;2022-11-04T05:28:59;34.40;;;20.33;;
66546;SDS011;53400;50.364;14.874;2022-11-04T05:31:25;35.90;;;19.52;;
66546;SDS011;53400;50.364;14.874;2022-11-04T05:33:52;36.08;;;20.48;;
66546;SDS011;53400;50.364;14.874;2022-11-04T05:36:18;35.80;;;20.25;;
66546;SDS011;53400;50.364;14.874;2022-11-04T05:38:48;36.78;;;18.67;;
66546;SDS011;53400;50.364;14.874;2022-11-04T05:41:15;38.70;;;20.63;;
66546;SDS011;53400;50.364;14.874;2022-11-04T05:43:51;36.47;;;20.20;;
66546;SDS011;53400;50.364;14.874;2022-11-04T05:46:17;36.47;;;19.65;;
66546;SDS011;53400;50.364;14.874;2022-11-04T05:48:43;34.00;;;19.60;;
66546;SDS011;53400;50.364;14.874;2022-11-04T05:51:11;36.33;;;20.38;;
66546;SDS011;53400;50.364;14.874;2022-11-04T05:53:39;33.97;;;19.27;;
66546;SDS011;53400;50.364;14.874;2022-11-04T05:56:05;36.20;;;19.85;;
66546;SDS011;53400;50.364;14.874;2022-11-04T05:58:31;37.55;;;20.20;;
66546;SDS011;53400;50.364;14.874;2022-11-04T06:01:10;32.72;;;19.83;;
66546;SDS011;53400;50.364;14.874;2022-11-04T06:03:48;36.80;;;20.15;;
66546;SDS011;53400;50.364;14.874;2022-11-04T06:06:14;35.45;;;19.17;;
66546;SDS011;53400;50.364;14.874;2022-11-04T06:08:40;34.42;;;19.50;;
66546;SDS011;53400;50.364;14.874;2022-11-04T06:11:06;34.75;;;19.15;;
66546;SDS011;53400;50.364;14.874;2022-11-04T06:13:32;35.55;;;21.33;;
66546;SDS011;53400;50.364;14.874;2022-11-04T06:15:58;38.97;;;20.35;;
66546;SDS011;53400;50.364;14.874;2022-11-04T06:18:25;37.65;;;19.88;;
66546;SDS011;53400;50.364;14.874;2022-11-04T06:21:05;38.85;;;20.35;;
66546;SDS011;53400;50.364;14.874;2022-11-04T06:23:33;43.25;;;21.30;;
66546;SDS011;53400;50.364;14.874;2022-11-04T06:25:59;39.58;;;21.20;;
66546;SDS011;53400;50.364;14.874;2022-11-04T06:28:25;38.03;;;21.63;;
66546;SDS011;53400;50.364;14.874;2022-11-04T06:30:51;35.63;;;21.10;;
66546;SDS011;53400;50.364;14.874;2022-11-04T06:33:16;37.42;;;22.20;;
66546;SDS011;53400;50.364;14.874;2022-11-04T06:35:44;39.75;;;21.45;;
66546;SDS011;53400;50.364;14.874;2022-11-04T06:38:10;38.38;;;21.20;;
66546;SDS011;53400;50.364;14.874;2022-11-04T06:40:36;36.65;;;20.20;;
66546;SDS011;53400;50.364;14.874;2022-11-04T06:43:01;35.63;;;20.77;;
66546;SDS011;53400;50.364;14.874;2022-11-04T06:45:28;36.33;;;19.75;;
66546;SDS011;53400;50.364;14.874;2022-11-04T06:47:54;37.95;;;20.30;;
66546;SDS011;53400;50.364;14.874;2022-11-04T06:50:20;36.13;;;20.80;;
66546;SDS011;53400;50.364;14.874;2022-11-04T06:52:47;40.70;;;22.45;;
66546;SDS011;53400;50.364;14.874;2022-11-04T06:55:13;39.78;;;21.63;;
66546;SDS011;53400;50.364;14.874;2022-11-04T06:57:39;41.80;;;21.85;;
66546;SDS011;53400;50.364;14.874;2022-11-04T07:00:06;33.65;;;20.20;;
66546;SDS011;53400;50.364;14.874;2022-11-04T07:02:32;38.13;;;19.55;;
66546;SDS011;53400;50.364;14.874;2022-11-04T07:04:58;33.72;;;19.15;;
66546;SDS011;53400;50.364;14.874;2022-11-04T07:07:24;36.40;;;20.70;;
66546;SDS011;53400;50.364;14.874;2022-11-04T07:09:54;38.15;;;21.23;;
66546;SDS011;53400;50.364;14.874;2022-11-04T07:12:21;34.17;;;19.15;;
66546;SDS011;53400;50.364;14.874;2022-11-04T07:14:48;37.20;;;20.13;;
66546;SDS011;53400;50.364;14.874;2022-11-04T07:17:14;36.67;;;19.77;;
66546;SDS011;53400;50.364;14.874;2022-11-04T07:19:40;35.47;;;19.55;;
66546;SDS011;53400;50.364;14.874;2022-11-04T07:22:05;36.78;;;20.75;;
66546;SDS011;53400;50.364;14.874;2022-11-04T07:24:32;37.10;;;20.80;;
66546;SDS011;53400;50.364;14.874;2022-11-04T07:27:00;36.40;;;20.63;;
66546;SDS011;53400;50.364;14.874;2022-11-04T07:29:26;37.95;;;19.85;;
66546;SDS011;53400;50.364;14.874;2022-11-04T07:31:53;36.10;;;19.80;;
66546;SDS011;53400;50.364;14.874;2022-11-04T07:34:19;37.20;;;20.98;;
66546;SDS011;53400;50.364;14.874;2022-11-04T07:36:45;33.17;;;18.73;;
66546;SDS011;53400;50.364;14.874;2022-11-04T07:39:11;34.20;;;19.77;;
66546;SDS011;53400;50.364;14.874;2022-11-04T07:41:37;36.70;;;20.08;;
66546;SDS011;53400;50.364;14.874;2022-11-04T07:44:04;33.85;;;19.20;;
66546;SDS011;53400;50.364;14.874;2022-11-04T07:46:30;37.65;;;19.17;;
66546;SDS011;53400;50.364;14.874;2022-11-04T07:48:57;34.47;;;19.25;;
66546;SDS011;53400;50.364;14.874;2022-11-04T07:51:23;35.75;;;19.10;;
66546;SDS011;53400;50.364;14.874;2022-11-04T07:53:50;34.05;;;18.67;;
66546;SDS011;53400;50.364;14.874;2022-11-04T07:56:16;32.97;;;18.95;;
66546;SDS011;53400;50.364;14.874;2022-11-04T07:58:43;38.88;;;20.58;;
66546;SDS011;53400;50.364;14.874;2022-11-04T08:01:12;34.33;;;20.80;;
66546;SDS011;53400;50.364;14.874;2022-11-04T08:03:40;41.78;;;20.52;;
66546;SDS011;53400;50.364;14.874;2022-11-04T08:06:07;34.03;;;19.80;;
66546;SDS011;53400;50.364;14.874;2022-11-04T08:08:35;38.95;;;21.45;;
66546;SDS011;53400;50.364;14.874;2022-11-04T08:11:03;36.80;;;20.27;;
66546;SDS011;53400;50.364;14.874;2022-11-04T08:13:31;35.95;;;20.75;;
66546;SDS011;53400;50.364;14.874;2022-11-04T08:16:00;37.65;;;21.63;;
66546;SDS011;53400;50.364;14.874;2022-11-04T08:18:29;41.90;;;23.10;;
66546;SDS011;53400;50.364;14.874;2022-11-04T08:20:55;40.78;;;21.70;;
66546;SDS011;53400;50.364;14.874;2022-11-04T08:23:21;37.25;;;20.65;;
66546;SDS011;53400;50.364;14.874;2022-11-04T08:25:46;38.08;;;21.20;;
66546;SDS011;53400;50.364;14.874;2022-11-04T08:28:12;39.72;;;21.20;;
66546;SDS011;53400;50.364;14.874;2022-11-04T08:30:50;41.00;;;21.73;;
66546;SDS011;53400;50.364;14.874;2022-11-04T08:33:17;33.45;;;20.42;;
66546;SDS011;53400;50.364;14.874;2022-11-04T08:35:44;35.40;;;21.17;;
66546;SDS011;53400;50.364;14.874;2022-11-04T08:38:10;37.10;;;22.10;;
66546;SDS011;53400;50.364;14.874;2022-11-04T08:40:36;38.00;;;20.27;;
66546;SDS011;53400;50.364;14.874;2022-11-04T08:43:02;38.15;;;22.42;;
66546;SDS011;53400;50.364;14.874;2022-11-04T08:45:28;33.70;;;20.63;;
66546;SDS011;53400;50.364;14.874;2022-11-04T08:47:54;37.75;;;21.30;;
66546;SDS011;53400;50.364;14.874;2022-11-04T08:50:20;43.67;;;23.88;;
66546;SDS011;53400;50.364;14.874;2022-11-04T08:52:53;37.67;;;21.67;;
66546;SDS011;53400;50.364;14.874;2022-11-04T08:55:19;43.20;;;23.33;;
66546;SDS011;53400;50.364;14.874;2022-11-04T08:57:45;38.55;;;22.67;;
66546;SDS011;53400;50.364;14.874;2022-11-04T09:00:11;42.78;;;23.73;;
66546;SDS011;53400;50.364;14.874;2022-11-04T09:02:38;43.42;;;22.75;;
66546;SDS011;53400;50.364;14.874;2022-11-04T09:05:04;43.58;;;23.95;;
66546;SDS011;53400;50.364;14.874;2022-11-04T09:07:31;43.80;;;23.40;;
66546;SDS011;53400;50.364;14.874;2022-11-04T09:10:00;39.42;;;22.65;;
66546;SDS011;53400;50.364;14.874;2022-11-04T09:12:27;40.35;;;22.40;;
66546;SDS011;53400;50.364;14.874;2022-11-04T09:14:52;37.20;;;22.30;;
66546;SDS011;53400;50.364;14.874;2022-11-04T09:17:19;41.65;;;23.00;;
66546;SDS011;53400;50.364;14.874;2022-11-04T09:19:44;41.35;;;23.10;;
66546;SDS011;53400;50.364;14.874;2022-11-04T09:22:10;42.25;;;23.83;;
66546;SDS011;53400;50.364;14.874;2022-11-04T09:24:36;37.53;;;22.17;;
66546;SDS011;53400;50.364;14.874;2022-11-04T09:27:04;38.22;;;22.13;;
66546;SDS011;53400;50.364;14.874;2022-11-04T09:29:30;41.95;;;23.13;;
66546;SDS011;53400;50.364;14.874;2022-11-04T09:31:58;40.40;;;23.67;;
66546;SDS011;53400;50.364;14.874;2022-11-04T09:34:24;43.58;;;24.73;;
66546;SDS011;53400;50.364;14.874;2022-11-04T09:36:51;48.08;;;25.75;;
66546;SDS011;53400;50.364;14.874;2022-11-04T09:39:19;43.00;;;23.38;;
66546;SDS011;53400;50.364;14.874;2022-11-04T09:44:49;42.05;;;22.40;;
66546;SDS011;53400;50.364;14.874;2022-11-04T09:47:20;41.25;;;23.13;;
66546;SDS011;53400;50.364;14.874;2022-11-04T09:49:48;43.10;;;23.92;;
66546;SDS011;53400;50.364;14.874;2022-11-04T09:52:18;40.92;;;23.13;;
66546;SDS011;53400;50.364;14.874;2022-11-04T09:54:49;47.35;;;26.90;;
66546;SDS011;53400;50.364;14.874;2022-11-04T09:57:24;44.08;;;24.02;;
66546;SDS011;53400;50.364;14.874;2022-11-04T09:59:50;44.50;;;23.70;;
66546;SDS011;53400;50.364;14.874;2022-11-04T10:02:20;46.30;;;25.98;;
66546;SDS011;53400;50.364;14.874;2022-11-04T10:04:58;50.25;;;26.95;;
66546;SDS011;53400;50.364;14.874;2022-11-04T10:07:39;50.80;;;25.70;;
66546;SDS011;53400;50.364;14.874;2022-11-04T10:10:23;53.47;;;28.20;;
66546;SDS011;53400;50.364;14.874;2022-11-04T10:12:59;51.63;;;27.60;;
66546;SDS011;53400;50.364;14.874;2022-11-04T10:15:46;62.20;;;29.38;;
66546;SDS011;53400;50.364;14.874;2022-11-04T10:18:28;56.05;;;27.77;;
66546;SDS011;53400;50.364;14.874;2022-11-04T10:21:08;53.38;;;26.40;;
66546;SDS011;53400;50.364;14.874;2022-11-04T10:23:44;56.63;;;28.27;;
66546;SDS011;53400;50.364;14.874;2022-11-04T10:26:17;57.45;;;28.63;;
66546;SDS011;53400;50.364;14.874;2022-11-04T10:28:51;55.67;;;26.98;;
66546;SDS011;53400;50.364;14.874;2022-11-04T10:31:21;56.17;;;27.90;;
66546;SDS011;53400;50.364;14.874;2022-11-04T10:33:49;58.45;;;27.20;;
66546;SDS011;53400;50.364;14.874;2022-11-04T10:36:18;52.67;;;26.65;;
66546;SDS011;53400;50.364;14.874;2022-11-04T10:38:46;53.95;;;29.08;;
66546;SDS011;53400;50.364;14.874;2022-11-04T10:41:19;54.22;;;26.75;;
66546;SDS011;53400;50.364;14.874;2022-11-04T10:43:53;49.90;;;26.13;;
66546;SDS011;53400;50.364;14.874;2022-11-04T10:46:29;53.35;;;26.05;;
66546;SDS011;53400;50.364;14.874;2022-11-04T10:49:18;44.17;;;22.73;;
66546;SDS011;53400;50.364;14.874;2022-11-04T10:52:00;51.47;;;25.02;;
66546;SDS011;53400;50.364;14.874;2022-11-04T10:54:27;45.25;;;23.30;;
66546;SDS011;53400;50.364;14.874;2022-11-04T10:56:58;46.30;;;23.80;;
66546;SDS011;53400;50.364;14.874;2022-11-04T10:59:27;42.70;;;23.35;;
66546;SDS011;53400;50.364;14.874;2022-11-04T11:01:55;46.53;;;24.05;;
66546;SDS011;53400;50.364;14.874;2022-11-04T11:04:26;45.13;;;25.35;;
66546;SDS011;53400;50.364;14.874;2022-11-04T11:06:54;48.00;;;25.08;;
66546;SDS011;53400;50.364;14.874;2022-11-04T11:09:22;43.22;;;23.58;;
66546;SDS011;53400;50.364;14.874;2022-11-04T11:11:54;42.30;;;24.33;;
66546;SDS011;53400;50.364;14.874;2022-11-04T11:14:34;42.80;;;23.15;;
66546;SDS011;53400;50.364;14.874;2022-11-04T11:17:18;40.65;;;22.38;;
66546;SDS011;53400;50.364;14.874;2022-11-04T11:19:47;41.13;;;21.95;;
66546;SDS011;53400;50.364;14.874;2022-11-04T11:25:13;34.35;;;20.65;;
66546;SDS011;53400;50.364;14.874;2022-11-04T11:27:46;33.72;;;20.15;;
66546;SDS011;53400;50.364;14.874;2022-11-04T11:30:26;35.40;;;19.45;;
66546;SDS011;53400;50.364;14.874;2022-11-04T11:32:55;35.28;;;19.95;;
66546;SDS011;53400;50.364;14.874;2022-11-04T11:35:25;32.33;;;18.60;;
66546;SDS011;53400;50.364;14.874;2022-11-04T11:37:55;29.33;;;17.30;;
66546;SDS011;53400;50.364;14.874;2022-11-04T11:40:26;33.50;;;19.65;;
66546;SDS011;53400;50.364;14.874;2022-11-04T11:42:56;31.30;;;19.80;;
66546;SDS011;53400;50.364;14.874;2022-11-04T11:45:26;34.80;;;22.17;;
66546;SDS011;53400;50.364;14.874;2022-11-04T11:47:54;32.58;;;19.02;;
66546;SDS011;53400;50.364;14.874;2022-11-04T11:50:21;30.83;;;19.88;;
66546;SDS011;53400;50.364;14.874;2022-11-04T11:53:11;26.33;;;16.23;;
66546;SDS011;53400;50.364;14.874;2022-11-04T11:55:39;29.17;;;16.83;;
66546;SDS011;53400;50.364;14.874;2022-11-04T11:58:11;26.48;;;15.57;;
66546;SDS011;53400;50.364;14.874;2022-11-04T12:00:45;23.77;;;13.80;;
66546;SDS011;53400;50.364;14.874;2022-11-04T12:03:16;27.02;;;15.35;;
66546;SDS011;53400;50.364;14.874;2022-11-04T12:06:00;26.17;;;14.50;;
66546;SDS011;53400;50.364;14.874;2022-11-04T12:08:45;25.77;;;15.47;;
66546;SDS011;53400;50.364;14.874;2022-11-04T12:11:21;24.10;;;14.35;;
66546;SDS011;53400;50.364;14.874;2022-11-04T12:13:54;21.88;;;13.30;;
66546;SDS011;53400;50.364;14.874;2022-11-04T12:16:27;22.88;;;13.63;;
66546;SDS011;53400;50.364;14.874;2022-11-04T12:19:02;23.95;;;12.80;;
66546;SDS011;53400;50.364;14.874;2022-11-04T12:21:45;23.83;;;14.27;;
66546;SDS011;53400;50.364;14.874;2022-11-04T12:24:18;22.00;;;12.88;;
66546;SDS011;53400;50.364;14.874;2022-11-04T12:26:58;20.88;;;12.45;;
66546;SDS011;53400;50.364;14.874;2022-11-04T12:29:31;20.88;;;12.63;;
66546;SDS011;53400;50.364;14.874;2022-11-04T12:32:09;23.48;;;13.93;;
66546;SDS011;53400;50.364;14.874;2022-11-04T12:34:48;23.98;;;13.15;;
66546;SDS011;53400;50.364;14.874;2022-11-04T12:37:24;25.10;;;14.23;;
66546;SDS011;53400;50.364;14.874;2022-11-04T12:40:08;32.03;;;17.17;;
66546;SDS011;53400;50.364;14.874;2022-11-04T12:42:39;28.33;;;15.25;;
66546;SDS011;53400;50.364;14.874;2022-11-04T12:45:19;27.67;;;15.05;;
66546;SDS011;53400;50.364;14.874;2022-11-04T12:47:58;24.70;;;14.98;;
66546;SDS011;53400;50.364;14.874;2022-11-04T12:53:27;18.75;;;10.95;;
66546;SDS011;53400;50.364;14.874;2022-11-04T12:56:05;19.05;;;11.60;;
66546;SDS011;53400;50.364;14.874;2022-11-04T12:58:38;18.60;;;10.95;;
66546;SDS011;53400;50.364;14.874;2022-11-04T13:01:10;18.50;;;11.52;;
66546;SDS011;53400;50.364;14.874;2022-11-04T13:03:45;16.92;;;9.90;;
66546;SDS011;53400;50.364;14.874;2022-11-04T13:06:17;17.58;;;9.52;;
66546;SDS011;53400;50.364;14.874;2022-11-04T13:08:49;18.20;;;10.15;;
66546;SDS011;53400;50.364;14.874;2022-11-04T13:11:17;17.80;;;9.85;;
66546;SDS011;53400;50.364;14.874;2022-11-04T13:13:48;14.57;;;8.60;;
66546;SDS011;53400;50.364;14.874;2022-11-04T13:16:21;17.25;;;9.25;;
66546;SDS011;53400;50.364;14.874;2022-11-04T13:18:49;14.70;;;8.60;;
66546;SDS011;53400;50.364;14.874;2022-11-04T13:21:16;14.63;;;9.05;;
66546;SDS011;53400;50.364;14.874;2022-11-04T13:23:49;17.85;;;9.98;;
66546;SDS011;53400;50.364;14.874;2022-11-04T13:26:21;15.15;;;8.55;;
66546;SDS011;53400;50.364;14.874;2022-11-04T13:28:49;16.85;;;9.52;;
66546;SDS011;53400;50.364;14.874;2022-11-04T13:31:27;16.13;;;9.60;;
66546;SDS011;53400;50.364;14.874;2022-11-04T13:34:04;13.88;;;8.30;;
66546;SDS011;53400;50.364;14.874;2022-11-04T13:36:37;14.98;;;8.02;;
66546;SDS011;53400;50.364;14.874;2022-11-04T13:39:07;12.90;;;8.45;;
66546;SDS011;53400;50.364;14.874;2022-11-04T13:41:50;26.58;;;20.08;;
66546;SDS011;53400;50.364;14.874;2022-11-04T13:44:36;21.83;;;13.57;;
66546;SDS011;53400;50.364;14.874;2022-11-04T13:47:04;25.67;;;16.02;;
66546;SDS011;53400;50.364;14.874;2022-11-04T13:49:46;22.88;;;13.57;;
66546;SDS011;53400;50.364;14.874;2022-11-04T13:52:13;21.03;;;12.60;;
66546;SDS011;53400;50.364;14.874;2022-11-04T13:54:40;18.83;;;9.93;;
66546;SDS011;53400;50.364;14.874;2022-11-04T13:57:10;14.82;;;8.25;;
66546;SDS011;53400;50.364;14.874;2022-11-04T13:59:39;14.30;;;8.75;;
66546;SDS011;53400;50.364;14.874;2022-11-04T14:08:09;15.48;;;8.20;;
66546;SDS011;53400;50.364;14.874;2022-11-04T14:10:37;15.35;;;8.55;;
66546;SDS011;53400;50.364;14.874;2022-11-04T14:16:08;13.13;;;7.72;;
66546;SDS011;53400;50.364;14.874;2022-11-04T14:18:36;15.98;;;9.23;;
66546;SDS011;53400;50.364;14.874;2022-11-04T14:21:05;12.95;;;7.45;;
66546;SDS011;53400;50.364;14.874;2022-11-04T14:23:34;12.88;;;7.95;;
66546;SDS011;53400;50.364;14.874;2022-11-04T14:26:01;12.23;;;7.68;;
66546;SDS011;53400;50.364;14.874;2022-11-04T14:28:29;12.60;;;8.35;;
66546;SDS011;53400;50.364;14.874;2022-11-04T14:30:57;16.85;;;9.65;;
66546;SDS011;53400;50.364;14.874;2022-11-04T14:33:34;12.73;;;8.02;;
66546;SDS011;53400;50.364;14.874;2022-11-04T14:36:14;13.32;;;7.68;;
66546;SDS011;53400;50.364;14.874;2022-11-04T14:38:52;13.35;;;7.38;;
66546;SDS011;53400;50.364;14.874;2022-11-04T14:41:21;16.05;;;10.45;;
66546;SDS011;53400;50.364;14.874;2022-11-04T14:43:56;15.90;;;9.98;;
66546;SDS011;53400;50.364;14.874;2022-11-04T14:46:27;18.45;;;10.50;;
66546;SDS011;53400;50.364;14.874;2022-11-04T14:49:00;17.20;;;10.70;;
66546;SDS011;53400;50.364;14.874;2022-11-04T14:51:29;16.40;;;11.10;;
66546;SDS011;53400;50.364;14.874;2022-11-04T14:54:01;11.85;;;8.43;;
66546;SDS011;53400;50.364;14.874;2022-11-04T14:56:29;11.77;;;7.70;;
66546;SDS011;53400;50.364;14.874;2022-11-04T14:58:57;24.88;;;16.77;;